createdAt,value
2023-02-19T00:23:23.312Z,12.8
2023-02-19T00:34:23.282Z,12.9
2023-02-19T00:40:23.346Z,12.7
2023-02-19T00:41:23.293Z,12.7
2023-02-19T00:42:23.323Z,12.8
2023-02-19T00:47:23.288Z,12.9
2023-02-19T00:57:23.837Z,12.7
2023-02-19T01:01:23.338Z,12.4
2023-02-19T01:26:23.303Z,12.6
2023-02-19T01:34:23.287Z,12.3
2023-02-19T01:38:23.305Z,12.5
2023-02-19T04:50:23.331Z,11.9
2023-02-19T07:33:23.319Z,12.4
2023-02-19T08:01:23.432Z,12.2
2023-02-19T08:09:23.317Z,12.3
2023-02-19T08:33:23.321Z,12.9
2023-02-19T09:42:23.339Z,12.5
2023-02-19T16:09:30.135Z,12.4
2023-02-19T16:54:23.379Z,11.7
2023-02-19T17:54:23.384Z,11.7
2023-02-19T19:40:23.407Z,10.9
2023-02-19T19:41:23.388Z,11
2023-02-19T19:42:23.392Z,10.9
2023-02-19T19:43:23.394Z,10.9
2023-02-19T19:44:23.390Z,10.9
2023-02-19T19:45:23.430Z,10.9
2023-02-19T19:46:23.463Z,11
2023-02-19T19:47:23.393Z,11
2023-02-19T19:48:23.399Z,11
2023-02-19T19:49:23.421Z,11
2023-02-19T19:50:23.486Z,11
2023-02-19T19:51:23.392Z,11
2023-02-19T19:52:23.401Z,11
2023-02-19T19:53:23.396Z,10.9
2023-02-19T19:54:23.395Z,10.8
2023-02-19T19:55:23.391Z,10.9
2023-02-19T19:56:23.387Z,10.9
2023-02-19T19:58:23.398Z,11
2023-02-19T19:59:23.395Z,11
2023-02-19T20:00:23.407Z,10.9
2023-02-19T20:01:23.522Z,11
2023-02-19T20:02:23.416Z,10.8
2023-02-19T20:03:23.393Z,10.8
2023-02-19T20:04:23.394Z,10.8
2023-02-19T20:05:23.391Z,10.8
2023-02-19T20:06:23.389Z,10.8
2023-02-19T20:07:23.386Z,10.7
2023-02-19T20:08:23.388Z,10.8
2023-02-19T20:09:23.397Z,10.7
2023-02-19T20:10:23.388Z,10.7
2023-02-19T20:11:23.388Z,10.6
2023-02-19T20:12:23.387Z,10.7
2023-02-19T20:13:23.389Z,10.7
2023-02-19T20:14:23.396Z,10.7
2023-02-19T20:15:23.392Z,10.7
2023-02-19T20:16:23.381Z,10.7
2023-02-19T20:18:23.382Z,10.8
2023-02-19T20:19:23.389Z,10.8
2023-02-19T20:20:23.386Z,10.8
2023-02-19T20:21:23.382Z,10.8
2023-02-19T20:23:23.394Z,10.6
2023-02-19T20:24:23.384Z,10.6
2023-02-19T20:25:23.399Z,10.7
2023-02-19T20:26:23.392Z,10.6
2023-02-19T20:27:23.388Z,10.6
2023-02-19T20:28:23.390Z,10.8
2023-02-19T20:29:23.388Z,10.8
2023-02-19T20:30:23.419Z,10.9
2023-02-19T20:31:23.533Z,10.9
2023-02-19T20:32:23.469Z,10.9
2023-02-19T20:33:23.389Z,10.9
2023-02-19T20:34:23.394Z,10.9
2023-02-19T20:35:25.686Z,11
2023-02-19T20:36:23.384Z,11.1
2023-02-19T20:37:23.415Z,11.1
2023-02-19T20:38:23.397Z,11.2
2023-02-19T20:39:23.396Z,11.2
2023-02-19T20:40:23.380Z,11.2
2023-02-19T20:41:23.410Z,11.2
2023-02-19T20:42:23.395Z,11.2
2023-02-19T20:43:23.391Z,11.3
2023-02-19T20:44:23.398Z,11.3
2023-02-19T20:45:23.396Z,11.2
2023-02-19T20:46:23.478Z,11.1
2023-02-19T20:47:23.387Z,11
2023-02-19T20:48:23.392Z,10.9
2023-02-19T20:50:23.389Z,10.9
2023-02-19T20:51:23.386Z,11
2023-02-19T20:52:23.390Z,11
2023-02-19T20:53:23.395Z,11.1
2023-02-19T20:55:23.386Z,11
2023-02-19T20:56:23.391Z,11
2023-02-19T20:57:23.389Z,11
2023-02-19T20:58:23.388Z,11
2023-02-19T20:59:23.392Z,11
2023-02-19T21:00:23.389Z,10.8
2023-02-19T21:01:23.468Z,10.8
2023-02-19T21:02:23.472Z,10.7
2023-02-19T21:03:23.388Z,10.8
2023-02-19T21:04:23.391Z,10.9
2023-02-19T21:05:23.397Z,10.8
2023-02-19T21:06:23.388Z,10.8
2023-02-19T21:07:23.384Z,10.9
2023-02-19T21:08:23.401Z,10.9
2023-02-19T21:09:23.402Z,10.9
2023-02-19T21:10:23.393Z,10.8
2023-02-19T21:11:23.396Z,10.7
2023-02-19T21:12:23.401Z,10.8
2023-02-19T21:13:23.394Z,10.7
2023-02-19T21:14:23.393Z,10.6
2023-02-19T21:15:23.398Z,10.6
2023-02-19T21:16:23.466Z,10.6
2023-02-19T21:17:23.395Z,10.7
2023-02-19T21:18:23.389Z,10.6
2023-02-19T21:19:23.389Z,10.7
2023-02-19T21:20:23.402Z,10.7
2023-02-19T21:21:23.417Z,10.7
2023-02-19T21:22:23.388Z,10.7
2023-02-19T21:23:23.414Z,10.7
2023-02-19T21:24:23.390Z,10.7
2023-02-19T21:25:23.393Z,10.7
2023-02-19T21:26:23.423Z,10.7
2023-02-19T21:28:23.392Z,10.7
2023-02-19T21:29:23.391Z,10.7
2023-02-19T21:30:23.454Z,10.8
2023-02-19T21:31:25.464Z,10.8
2023-02-19T21:32:23.609Z,10.9
2023-02-19T21:33:23.396Z,11
2023-02-19T21:34:23.390Z,11.1
2023-02-19T21:35:23.394Z,11
2023-02-19T21:36:23.390Z,11.1
2023-02-19T21:37:23.387Z,11.2
2023-02-19T21:38:23.394Z,11.3
2023-02-19T21:39:23.392Z,11.3
2023-02-19T21:40:23.415Z,11.2
2023-02-19T21:41:23.387Z,11
2023-02-19T21:42:23.397Z,10.9
2023-02-19T21:43:23.414Z,10.9
2023-02-19T21:44:23.395Z,10.9
2023-02-19T21:45:23.461Z,10.9
2023-02-19T21:46:23.393Z,10.7
2023-02-19T21:47:23.396Z,10.5
2023-02-19T21:48:23.392Z,10.4
2023-02-19T21:49:23.406Z,10.4
2023-02-19T21:50:23.408Z,10.3
2023-02-19T21:51:23.882Z,10.3
2023-02-19T21:52:23.420Z,10.1
2023-02-19T21:53:23.390Z,10
2023-02-19T21:54:23.386Z,9.9
2023-02-19T21:55:23.391Z,9.7
2023-02-19T21:56:23.385Z,9.7
2023-02-19T21:57:23.386Z,9.5
2023-02-19T21:58:23.394Z,9.4
2023-02-19T21:59:23.395Z,9.3
2023-02-19T22:00:23.729Z,9.4
2023-02-19T22:01:23.393Z,9.4
2023-02-19T22:02:23.379Z,9.3
2023-02-19T22:03:23.392Z,9.4
2023-02-19T22:04:23.382Z,9.4
2023-02-19T22:05:23.393Z,9.5
2023-02-19T22:06:23.393Z,9.6
2023-02-19T22:07:23.391Z,9.6
2023-02-19T22:08:23.427Z,9.7
2023-02-19T22:09:23.390Z,9.8
2023-02-19T22:10:23.387Z,9.9
2023-02-19T22:11:23.387Z,9.9
2023-02-19T22:12:23.380Z,9.9
2023-02-19T22:13:23.384Z,9.9
2023-02-19T22:14:23.398Z,9.9
2023-02-19T22:15:23.389Z,10
2023-02-19T22:16:23.422Z,10
2023-02-19T22:17:23.382Z,10
2023-02-19T22:19:23.386Z,10
2023-02-19T22:20:23.395Z,9.9
2023-02-19T22:21:23.395Z,9.8
2023-02-19T22:22:23.392Z,9.8
2023-02-19T22:23:23.386Z,9.8
2023-02-19T22:24:23.393Z,9.8
2023-02-19T22:25:23.388Z,9.8
2023-02-19T22:26:23.449Z,9.8
2023-02-19T22:27:23.401Z,9.8
2023-02-19T22:28:23.392Z,9.8
2023-02-19T22:29:23.385Z,9.7
2023-02-19T22:30:23.446Z,9.7
2023-02-19T22:31:23.450Z,9.7
2023-02-19T22:32:23.533Z,9.8
2023-02-19T22:33:23.385Z,9.7
2023-02-19T22:34:23.409Z,9.7
2023-02-19T22:35:23.403Z,9.8
2023-02-19T22:36:24.565Z,9.8
2023-02-19T22:37:23.389Z,9.9
2023-02-19T22:38:23.384Z,9.8
2023-02-19T22:40:23.382Z,9.8
2023-02-19T22:41:23.385Z,9.7
2023-02-19T22:42:23.400Z,9.6
2023-02-19T22:43:23.402Z,9.6
2023-02-19T22:44:23.378Z,9.6
2023-02-19T22:45:23.388Z,9.6
2023-02-19T22:46:23.393Z,9.6
2023-02-19T22:47:23.397Z,9.5
2023-02-19T22:48:30.040Z,9.6
2023-02-19T22:50:23.394Z,9.8
2023-02-19T22:51:23.392Z,9.7
2023-02-19T22:52:23.388Z,9.5
2023-02-19T22:53:23.397Z,9.6
2023-02-19T22:54:23.393Z,9.6
2023-02-19T22:55:23.391Z,9.3
2023-02-19T22:56:23.393Z,9.1
2023-02-19T22:57:23.399Z,8.9
2023-02-19T22:58:23.396Z,8.8
2023-02-19T22:59:23.388Z,8.8
2023-02-19T23:00:23.405Z,8.9
2023-02-19T23:01:23.452Z,9
2023-02-19T23:02:23.417Z,9.1
2023-02-19T23:03:23.436Z,9.2
2023-02-19T23:04:23.501Z,9.2
2023-02-19T23:05:23.421Z,9.1
2023-02-19T23:06:23.389Z,9.2
2023-02-19T23:07:23.393Z,9.2
2023-02-19T23:08:23.394Z,9.3
2023-02-19T23:09:23.392Z,9.3
2023-02-19T23:10:23.399Z,9.3
2023-02-19T23:11:23.431Z,9.2
2023-02-19T23:12:23.400Z,9.2
2023-02-19T23:13:23.400Z,9
2023-02-19T23:14:23.396Z,9
2023-02-19T23:15:23.397Z,8.9
2023-02-19T23:16:23.424Z,8.6
2023-02-19T23:17:23.397Z,8.7
2023-02-19T23:18:23.397Z,8.8
2023-02-19T23:19:23.392Z,8.8
2023-02-19T23:21:23.425Z,9.1
2023-02-19T23:22:23.403Z,9.1
2023-02-19T23:23:23.401Z,9.1
2023-02-19T23:24:23.404Z,9.1
2023-02-19T23:26:23.439Z,9.1
2023-02-19T23:27:23.390Z,9.2
2023-02-19T23:28:23.414Z,9
2023-02-19T23:29:25.067Z,9
2023-02-19T23:30:23.561Z,8.9
2023-02-19T23:31:23.545Z,9
2023-02-19T23:32:23.405Z,9.1
2023-02-19T23:33:23.393Z,8.8
2023-02-19T23:34:23.403Z,8.7
2023-02-19T23:35:23.428Z,8.8
2023-02-19T23:37:23.397Z,8.7
2023-02-19T23:38:23.399Z,8.8
2023-02-19T23:39:23.408Z,8.8
2023-02-19T23:40:23.394Z,8.7
2023-02-19T23:41:23.393Z,8.4
2023-02-19T23:42:23.392Z,8.4
2023-02-19T23:43:23.395Z,8.5
2023-02-19T23:44:23.393Z,8.4
2023-02-19T23:45:23.397Z,8.3
2023-02-19T23:47:23.381Z,8
2023-02-19T23:48:23.387Z,8.2
2023-02-19T23:49:23.388Z,8.2
2023-02-19T23:50:23.386Z,8.1
2023-02-19T23:51:23.381Z,8.1
2023-02-19T23:52:23.390Z,8.2
2023-02-19T23:53:23.393Z,8
2023-02-19T23:54:23.414Z,8
2023-02-19T23:55:23.383Z,8.1
2023-02-19T23:56:23.381Z,8.1
2023-02-19T23:57:23.390Z,8
2023-02-19T23:58:23.397Z,7.7
2023-02-19T23:59:23.385Z,7.6
